Time;durP1;ratioP1;P1;durP2;ratioP2;P2;SDS_P1;SDS_P2;PMS_P1;PMS_P2;Temp;Humidity;BMP_temperature;BMP_pressure;BME280_temperature;BME280_humidity;BME280_pressure;Samples;Min_cycle;Max_cycle;Signal;HPM_P1;HPM_P2
2021/05/22 00:00:58;;;;;;;4.97;2.92;;;;;;;12.46;85.80;100954.23;1689976;84;22021;-64
2021/05/22 00:03:25;;;;;;;8.43;3.20;;;;;;;12.45;86.05;100959.20;1689235;83;21085;-63
2021/05/22 00:05:51;;;;;;;6.00;3.25;;;;;;;12.44;86.25;100951.18;1690377;84;21594;-63
2021/05/22 00:08:18;;;;;;;6.47;2.92;;;;;;;12.42;86.44;100954.40;1716826;83;21137;-62
2021/05/22 00:10:44;;;;;;;6.72;3.00;;;;;;;12.42;86.61;100953.05;1665406;84;21117;-64
2021/05/22 00:13:12;;;;;;;7.25;2.52;;;;;;;12.42;86.54;100951.71;1697540;84;21120;-63
2021/05/22 00:15:39;;;;;;;12.03;3.92;;;;;;;12.39;86.52;100953.17;1665550;86;21125;-63
2021/05/22 00:18:05;;;;;;;6.33;2.40;;;;;;;12.37;86.49;100967.16;1674443;85;21153;-63
2021/05/22 00:20:32;;;;;;;8.73;2.67;;;;;;;12.36;86.41;100968.09;1677025;85;22356;-63
2021/05/22 00:22:59;;;;;;;4.65;2.20;;;;;;;12.34;86.34;100969.48;1675056;85;21118;-63
2021/05/22 00:25:25;;;;;;;4.47;2.47;;;;;;;12.35;86.31;100971.72;1688375;84;21117;-63
2021/05/22 00:27:51;;;;;;;4.53;2.00;;;;;;;12.34;86.07;100973.52;1681036;84;21130;-63
2021/05/22 00:30:19;;;;;;;3.98;1.80;;;;;;;12.32;86.06;100978.08;1694829;84;21137;-64
2021/05/22 00:32:45;;;;;;;4.25;1.92;;;;;;;12.29;85.96;100988.50;1675663;85;21122;-63
2021/05/22 00:35:11;;;;;;;4.00;2.30;;;;;;;12.29;85.99;100983.58;1675774;85;21107;-63
2021/05/22 00:37:38;;;;;;;6.70;1.98;;;;;;;12.28;85.95;100977.34;1706832;83;21110;-63
2021/05/22 00:40:06;;;;;;;5.67;2.42;;;;;;;12.26;85.95;100981.88;1660160;85;21133;-63
2021/05/22 00:42:37;;;;;;;6.05;2.20;;;;;;;12.25;85.94;100977.43;1660597;86;21018;-63
2021/05/22 00:45:17;;;;;;;4.37;2.10;;;;;;;12.23;85.93;100975.27;1668264;84;21177;-64
2021/05/22 00:47:46;;;;;;;4.65;2.17;;;;;;;12.21;85.96;100973.60;1667798;84;21634;-62
2021/05/22 00:50:21;;;;;;;3.08;1.72;;;;;;;12.21;85.99;100970.91;1648653;86;21738;-63
2021/05/22 00:52:47;;;;;;;2.75;1.85;;;;;;;12.21;86.03;100972.25;1701260;84;21594;-62
2021/05/22 00:55:15;;;;;;;2.75;2.02;;;;;;;12.19;86.08;100972.30;1702181;83;21306;-63
2021/05/22 00:57:41;;;;;;;5.22;2.50;;;;;;;12.19;86.20;100973.64;1701779;83;21116;-63
2021/05/22 01:00:47;;;;;;;2.77;1.95;;;;;;;12.21;86.27;100973.11;1699964;84;21168;-64
2021/05/22 01:03:29;;;;;;;6.33;2.50;;;;;;;12.22;86.24;100977.55;1702203;84;21262;-63
2021/05/22 01:06:14;;;;;;;6.60;2.62;;;;;;;12.23;86.21;100967.20;1701981;83;21196;-63
2021/05/22 01:08:49;;;;;;;6.47;2.75;;;;;;;12.26;86.15;100968.43;1649781;86;21119;-63
2021/05/22 01:11:32;;;;;;;5.53;3.00;;;;;;;12.26;86.18;100964.40;1707188;83;21095;-64
2021/05/22 01:14:18;;;;;;;5.95;2.33;;;;;;;12.24;86.20;100956.86;1674504;84;21313;-62
2021/05/22 01:16:46;;;;;;;5.90;2.40;;;;;;;12.24;86.12;100961.38;1660107;84;21109;-64
2021/05/22 01:19:20;;;;;;;5.17;2.27;;;;;;;12.19;86.12;100953.48;1663800;86;21089;-63
2021/05/22 01:21:47;;;;;;;4.28;2.00;;;;;;;12.17;86.12;100949.98;1665192;84;21709;-63
2021/05/22 01:24:17;;;;;;;4.87;2.27;;;;;;;12.12;86.11;100945.27;1660450;86;21150;-63
2021/05/22 01:26:43;;;;;;;9.85;2.52;;;;;;;12.07;86.24;100955.31;1686298;84;21985;-63
2021/05/22 01:29:10;;;;;;;5.37;2.15;;;;;;;12.03;86.41;100958.09;1688260;84;21320;-63
2021/05/22 01:31:37;;;;;;;6.30;2.55;;;;;;;12.01;86.48;100965.82;1690081;84;21280;-63
2021/05/22 01:34:09;;;;;;;5.50;2.45;;;;;;;12.00;86.66;100968.07;1689916;84;21590;-62
2021/05/22 01:36:35;;;;;;;7.28;2.98;;;;;;;11.99;86.72;100967.17;1676914;83;21118;-62
2021/05/22 01:39:03;;;;;;;3.98;2.65;;;;;;;11.97;86.71;100970.39;1674524;85;21046;-63
2021/05/22 01:41:30;;;;;;;7.58;4.22;;;;;;;11.96;86.77;100974.50;1674593;85;21561;-63
2021/05/22 01:43:59;;;;;;;9.75;6.42;;;;;;;11.92;86.91;100985.81;1664836;84;21628;-63
2021/05/22 01:46:25;;;;;;;18.25;11.75;;;;;;;11.88;87.04;100985.52;1679403;84;21169;-63
2021/05/22 01:48:52;;;;;;;18.57;11.35;;;;;;;11.83;87.23;100984.83;1702855;83;21932;-63
2021/05/22 01:51:20;;;;;;;11.80;7.60;;;;;;;11.80;87.53;100991.17;1689473;84;21534;-63
2021/05/22 01:54:06;;;;;;;5.10;2.98;;;;;;;11.80;87.68;100984.91;1690051;84;21136;-64
2021/05/22 01:56:33;;;;;;;5.05;2.80;;;;;;;11.81;87.86;100990.69;1686449;84;21160;-63
2021/05/22 01:59:01;;;;;;;4.75;2.45;;;;;;;11.81;87.98;101004.12;1674474;85;21552;-63
2021/05/22 02:01:27;;;;;;;7.03;2.77;;;;;;;11.80;88.13;101001.02;1673949;85;21520;-62
2021/05/22 02:03:56;;;;;;;4.05;2.15;;;;;;;11.78;88.15;101001.55;1677667;83;21453;-63
2021/05/22 02:06:28;;;;;;;6.67;2.30;;;;;;;11.81;88.26;101010.84;1696686;84;22266;-61
2021/05/22 02:08:59;;;;;;;10.80;3.47;;;;;;;11.83;88.19;101011.69;1696796;84;21136;-63
2021/05/22 02:11:27;;;;;;;3.50;2.10;;;;;;;11.85;88.02;101019.22;1695492;84;21105;-63
2021/05/22 02:13:55;;;;;;;11.43;4.92;;;;;;;11.86;87.89;101016.95;1697107;84;21152;-63
2021/05/22 02:16:27;;;;;;;15.83;10.00;;;;;;;11.86;87.66;101019.63;1711493;82;21736;-63
2021/05/22 02:18:55;;;;;;;19.87;11.30;;;;;;;11.88;87.37;101020.45;1677364;83;21173;-63
2021/05/22 02:21:26;;;;;;;24.45;12.10;;;;;;;11.91;87.00;101023.02;1656131;85;21141;-63
2021/05/22 02:23:53;;;;;;;22.95;11.90;;;;;;;11.99;86.81;101007.48;1637258;87;21101;-63
2021/05/22 02:26:24;;;;;;;26.33;12.25;;;;;;;12.04;86.26;101016.77;1686464;84;21666;-63
2021/05/22 02:28:51;;;;;;;39.45;16.05;;;;;;;12.07;86.03;101014.44;1702987;84;21597;-63
2021/05/22 02:31:18;;;;;;;39.50;21.23;;;;;;;12.10;85.58;101022.39;1702877;84;21122;-63
2021/05/22 02:33:45;;;;;;;30.30;16.97;;;;;;;12.11;85.22;101020.11;1675039;84;21140;-63
2021/05/22 02:36:12;;;;;;;23.20;14.20;;;;;;;12.14;85.09;101022.19;1667986;84;21134;-62
2021/05/22 02:38:46;;;;;;;22.00;14.50;;;;;;;12.17;84.84;101025.24;1667781;85;21161;-62
2021/05/22 02:41:13;;;;;;;29.42;19.77;;;;;;;12.17;84.84;101026.13;1636725;86;21651;-62
2021/05/22 02:43:43;;;;;;;25.37;18.07;;;;;;;12.16;84.94;101027.52;1666104;85;21157;-63
2021/05/22 02:46:09;;;;;;;24.77;17.77;;;;;;;12.17;84.99;101025.24;1711555;83;21034;-62
2021/05/22 02:48:37;;;;;;;22.48;14.65;;;;;;;12.15;84.99;101026.63;1697637;84;21279;-63
2021/05/22 02:51:08;;;;;;;26.48;15.55;;;;;;;12.16;84.90;101023.48;1697622;84;21096;-64
2021/05/22 02:53:36;;;;;;;22.20;15.25;;;;;;;12.17;84.67;101024.80;1668315;84;21441;-63
2021/05/22 02:56:06;;;;;;;24.55;17.42;;;;;;;12.21;84.55;101024.67;1703122;84;21626;-63
2021/05/22 02:58:40;;;;;;;24.55;16.97;;;;;;;12.21;84.57;101025.53;1703719;84;21109;-63
2021/05/22 03:01:07;;;;;;;16.87;11.15;;;;;;;12.23;84.60;101022.80;1704657;83;26884;-61
2021/05/22 03:03:34;;;;;;;26.07;17.23;;;;;;;12.23;84.55;101029.03;1703260;84;21690;-63
2021/05/22 03:06:02;;;;;;;17.67;11.28;;;;;;;12.22;84.49;101027.77;1699594;83;21173;-64
2021/05/22 03:08:29;;;;;;;18.75;12.25;;;;;;;12.20;84.52;101026.47;1686769;84;21178;-62
2021/05/22 03:10:56;;;;;;;13.88;10.32;;;;;;;12.21;84.53;101035.42;1669209;85;21168;-65
2021/05/22 03:13:23;;;;;;;24.55;14.53;;;;;;;12.21;84.53;101042.14;1671681;84;21114;-62
2021/05/22 03:15:50;;;;;;;17.57;13.15;;;;;;;12.23;84.38;101056.41;1671459;84;21172;-61
2021/05/22 03:18:17;;;;;;;15.68;10.75;;;;;;;12.28;84.24;101054.41;1669167;85;21077;-62
2021/05/22 03:20:45;;;;;;;15.93;8.78;;;;;;;12.33;83.86;101060.48;1669168;85;21160;-62
2021/05/22 03:23:11;;;;;;;16.77;8.35;;;;;;;12.41;83.69;101066.92;1667648;85;21432;-63
2021/05/22 03:25:38;;;;;;;11.33;7.17;;;;;;;12.50;83.16;101067.94;1669056;85;21085;-62
2021/05/22 03:28:04;;;;;;;10.23;6.05;;;;;;;12.60;82.96;101065.30;1669006;85;21104;-63
2021/05/22 03:30:31;;;;;;;13.53;7.12;;;;;;;12.72;82.48;101069.80;1668344;84;21439;-62
2021/05/22 03:32:57;;;;;;;12.20;7.45;;;;;;;12.86;81.97;101075.50;1668939;85;21642;-62
2021/05/22 03:35:24;;;;;;;17.48;11.05;;;;;;;12.99;81.37;101069.64;1668981;85;21104;-62
2021/05/22 03:37:52;;;;;;;15.88;9.13;;;;;;;13.13;81.17;101075.33;1668636;85;21646;-63
2021/05/22 03:40:18;;;;;;;18.00;12.05;;;;;;;13.24;80.87;101080.77;1669239;84;21096;-61
2021/05/22 03:42:45;;;;;;;18.92;14.33;;;;;;;13.35;80.31;101073.59;1669141;84;21127;-63
2021/05/22 03:45:13;;;;;;;25.70;15.13;;;;;;;13.48;80.03;101086.10;1669271;84;21109;-63
2021/05/22 03:47:40;;;;;;;23.92;14.53;;;;;;;13.58;79.71;101087.00;1669265;85;21140;-62
2021/05/22 03:50:08;;;;;;;18.77;12.40;;;;;;;13.69;79.33;101090.59;1669191;85;21611;-62
2021/05/22 03:52:35;;;;;;;15.85;10.60;;;;;;;13.81;78.79;101092.33;1652835;85;21045;-63
2021/05/22 03:55:03;;;;;;;12.15;8.50;;;;;;;13.87;78.34;101094.30;1652385;85;21082;-64
2021/05/22 03:57:30;;;;;;;16.65;7.72;;;;;;;13.95;77.79;101103.39;1652712;86;21137;-62
2021/05/22 03:59:56;;;;;;;14.78;9.00;;;;;;;14.01;77.61;101096.38;1652303;85;21177;-62
2021/05/22 04:02:23;;;;;;;13.30;6.17;;;;;;;14.10;77.10;101098.29;1652626;85;21098;-63
2021/05/22 04:04:49;;;;;;;9.40;5.42;;;;;;;14.19;76.55;101103.25;1652952;84;21188;-62
2021/05/22 04:07:16;;;;;;;17.12;7.40;;;;;;;14.27;75.89;101102.46;1674207;83;21128;-63
2021/05/22 04:09:42;;;;;;;12.05;7.67;;;;;;;14.39;75.38;101109.58;1705946;83;21144;-63
2021/05/22 04:12:09;;;;;;;15.38;8.65;;;;;;;14.52;74.91;101109.89;1664829;86;21093;-64
2021/05/22 04:14:35;;;;;;;15.50;8.50;;;;;;;14.61;74.37;101115.74;1661669;86;21517;-62
2021/05/22 04:17:03;;;;;;;17.05;9.08;;;;;;;14.70;73.94;101114.91;1689745;84;21090;-62
2021/05/22 04:19:30;;;;;;;20.40;13.35;;;;;;;14.81;73.78;101122.07;1696895;84;21129;-62
2021/05/22 04:21:57;;;;;;;22.32;13.35;;;;;;;14.93;73.39;101126.50;1689681;84;21120;-62
2021/05/22 04:24:24;;;;;;;27.20;12.50;;;;;;;15.04;72.86;101128.20;1689811;84;21792;-62
2021/05/22 04:26:50;;;;;;;27.32;15.25;;;;;;;15.15;72.33;101122.28;1690234;83;21288;-63
2021/05/22 04:29:16;;;;;;;29.72;13.40;;;;;;;15.25;72.15;101120.02;1689897;84;21148;-63
2021/05/22 04:31:43;;;;;;;18.27;11.40;;;;;;;15.35;71.68;101124.00;1689901;84;21129;-62
2021/05/22 04:34:10;;;;;;;26.23;15.03;;;;;;;15.43;71.54;101124.52;1688946;84;22224;-62
2021/05/22 04:36:37;;;;;;;27.98;14.15;;;;;;;15.52;71.34;101131.75;1689801;84;21112;-62
2021/05/22 04:39:05;;;;;;;19.85;12.07;;;;;;;15.61;70.86;101121.36;1695821;83;21111;-62
2021/05/22 04:41:31;;;;;;;18.65;13.00;;;;;;;15.72;70.43;101128.92;1697411;83;21174;-62
2021/05/22 04:43:58;;;;;;;19.87;11.88;;;;;;;15.81;70.35;101128.08;1674144;85;21133;-64
2021/05/22 04:46:26;;;;;;;18.52;12.43;;;;;;;15.89;69.90;101132.64;1681357;84;21105;-64
2021/05/22 04:48:55;;;;;;;16.67;10.25;;;;;;;16.00;69.54;101134.30;1697105;83;21968;-63
2021/05/22 04:51:22;;;;;;;12.05;8.58;;;;;;;16.12;69.11;101142.73;1690639;84;21176;-64
2021/05/22 04:53:48;;;;;;;13.00;7.95;;;;;;;16.20;69.21;101139.14;1690365;84;21029;-63
2021/05/22 04:56:15;;;;;;;9.90;6.95;;;;;;;16.30;69.17;101138.19;1689707;84;21140;-63
2021/05/22 04:58:41;;;;;;;15.13;8.18;;;;;;;16.40;69.00;101137.22;1690317;84;21134;-63
2021/05/22 05:01:08;;;;;;;15.80;7.20;;;;;;;16.49;68.95;101134.03;1690667;84;21168;-63
2021/05/22 05:03:34;;;;;;;18.05;5.60;;;;;;;16.58;69.24;101132.17;1689749;84;21105;-64
2021/05/22 05:06:01;;;;;;;13.03;5.80;;;;;;;16.67;68.47;101129.91;1693441;83;21349;-63
2021/05/22 05:08:28;;;;;;;10.72;4.17;;;;;;;16.74;68.40;101121.86;1712354;82;21574;-63
2021/05/22 05:10:54;;;;;;;9.05;4.53;;;;;;;16.86;66.89;101127.08;1693128;83;21185;-63
2021/05/22 05:13:22;;;;;;;9.58;4.87;;;;;;;16.97;66.25;101130.05;1680158;85;21094;-63
2021/05/22 05:15:48;;;;;;;13.18;4.85;;;;;;;17.12;66.35;101128.83;1693297;82;21744;-63
2021/05/22 05:18:15;;;;;;;10.68;4.83;;;;;;;17.24;66.72;101136.73;1706206;82;21665;-65
2021/05/22 05:20:41;;;;;;;12.58;7.58;;;;;;;17.28;66.13;101136.48;1697457;84;21088;-64
2021/05/22 05:23:08;;;;;;;15.45;9.83;;;;;;;17.32;66.48;101137.16;1697760;84;21192;-64
2021/05/22 05:25:35;;;;;;;12.55;8.20;;;;;;;17.42;66.87;101132.09;1687287;84;21145;-63
2021/05/22 05:28:01;;;;;;;11.38;7.10;;;;;;;17.53;66.82;101134.17;1667912;85;21818;-62
2021/05/22 05:30:28;;;;;;;16.85;9.35;;;;;;;17.64;66.80;101133.08;1668077;84;21654;-64
2021/05/22 05:32:54;;;;;;;18.67;8.53;;;;;;;17.76;66.94;101123.34;1679395;84;21631;-64
2021/05/22 05:35:20;;;;;;;13.72;8.50;;;;;;;17.86;66.55;101122.31;1680105;85;21113;-62
2021/05/22 05:37:48;;;;;;;16.57;7.70;;;;;;;17.91;66.44;101125.61;1694095;82;21136;-65
2021/05/22 05:40:19;;;;;;;12.73;5.95;;;;;;;17.99;66.44;101131.44;1714347;83;21133;-65
2021/05/22 05:42:43;;;;;;;13.68;7.28;;;;;;;18.13;66.25;101133.84;1725174;83;21184;-65
2021/05/22 05:45:12;;;;;;;22.30;8.33;;;;;;;18.26;65.99;101133.50;1697770;84;21077;-66
2021/05/22 05:47:39;;;;;;;20.62;7.35;;;;;;;18.38;65.45;101142.72;1667130;84;21142;-65
2021/05/22 05:50:07;;;;;;;12.10;6.42;;;;;;;18.50;65.03;101142.91;1724546;83;21049;-66
2021/05/22 05:52:36;;;;;;;10.48;5.20;;;;;;;18.61;64.71;101150.77;1722744;83;21108;-66
2021/05/22 05:55:06;;;;;;;10.82;4.60;;;;;;;18.73;63.83;101152.34;1697643;84;21116;-64
2021/05/22 05:57:34;;;;;;;15.38;4.67;;;;;;;18.83;63.09;101153.48;1697650;84;21033;-64
2021/05/22 06:00:00;;;;;;;22.90;5.05;;;;;;;18.89;61.62;101153.09;1700869;82;21717;-64
2021/05/22 06:02:27;;;;;;;17.45;4.05;;;;;;;18.94;61.19;101151.44;1732847;82;21579;-63
2021/05/22 06:04:54;;;;;;;18.77;5.90;;;;;;;19.05;60.81;101153.50;1732665;82;21862;-64
2021/05/22 06:07:23;;;;;;;19.57;6.00;;;;;;;19.18;60.85;101148.14;1705644;82;21114;-64
2021/05/22 06:09:49;;;;;;;25.08;5.70;;;;;;;19.32;60.08;101148.12;1659876;85;21149;-66
2021/05/22 06:12:16;;;;;;;22.20;5.58;;;;;;;19.47;59.60;101153.02;1660225;86;21125;-63
2021/05/22 06:14:47;;;;;;;12.07;4.62;;;;;;;19.54;59.00;101153.50;1671481;84;21122;-65
2021/05/22 06:17:12;;;;;;;14.45;4.67;;;;;;;19.61;58.66;101159.41;1690952;84;21054;-63
2021/05/22 06:19:38;;;;;;;11.53;3.87;;;;;;;19.66;57.55;101151.80;1680518;84;21121;-65
2021/05/22 06:22:05;;;;;;;12.43;4.42;;;;;;;19.74;57.13;101156.72;1676122;84;21058;-65
2021/05/22 06:24:31;;;;;;;8.23;4.22;;;;;;;19.86;57.98;101163.19;1683205;84;21115;-62
2021/05/22 06:27:01;;;;;;;11.65;4.60;;;;;;;19.99;58.35;101149.64;1688605;84;21154;-64
2021/05/22 06:29:27;;;;;;;11.50;4.28;;;;;;;20.10;57.90;101150.27;1677107;84;21106;-65
2021/05/22 06:31:54;;;;;;;4.92;3.58;;;;;;;20.16;57.15;101148.47;1678856;84;22142;-65
2021/05/22 06:34:20;;;;;;;6.95;3.30;;;;;;;20.21;55.51;101149.02;1689227;84;21392;-65
2021/05/22 06:36:47;;;;;;;8.90;3.30;;;;;;;20.27;52.27;101152.69;1679863;84;21169;-64
2021/05/22 06:39:14;;;;;;;5.20;2.58;;;;;;;20.31;50.80;101152.85;1707302;83;21141;-64
2021/05/22 06:41:42;;;;;;;2.50;1.98;;;;;;;20.35;48.97;101152.63;1701846;84;21074;-66
2021/05/22 06:44:13;;;;;;;4.08;1.40;;;;;;;20.42;47.90;101162.10;1687663;84;21165;-65
2021/05/22 06:49:06;;;;;;;1.45;1.22;;;;;;;20.45;47.53;101163.27;1640283;86;21153;-66
2021/05/22 06:51:32;;;;;;;2.58;1.55;;;;;;;20.50;46.29;101164.29;1687056;84;21111;-65
2021/05/22 06:53:59;;;;;;;5.37;1.57;;;;;;;20.50;47.17;101162.93;1688582;84;21128;-64
2021/05/22 06:56:27;;;;;;;3.40;1.50;;;;;;;20.55;47.24;101164.36;1687720;84;21136;-65
2021/05/22 06:58:53;;;;;;;5.90;1.37;;;;;;;20.61;46.27;101165.78;1688018;84;21117;-64
2021/05/22 07:01:23;;;;;;;2.70;1.15;;;;;;;20.65;46.46;101169.13;1689146;83;21118;-67
2021/05/22 07:03:49;;;;;;;2.77;1.35;;;;;;;20.70;45.60;101162.89;1686795;83;21087;-67
2021/05/22 07:06:16;;;;;;;5.85;1.55;;;;;;;20.77;46.28;101156.02;1692664;83;21088;-67
2021/05/22 07:08:42;;;;;;;3.33;1.20;;;;;;;20.82;46.42;101167.98;1659785;84;21198;-67
2021/05/22 07:11:09;;;;;;;2.02;1.20;;;;;;;20.83;45.95;101161.05;1653679;85;21348;-67
2021/05/22 07:13:37;;;;;;;1.27;1.05;;;;;;;20.88;45.38;101157.48;1658166;85;21592;-66
2021/05/22 07:16:05;;;;;;;5.42;1.30;;;;;;;20.91;44.21;101162.36;1654843;84;21106;-67
2021/05/22 07:18:32;;;;;;;1.60;1.25;;;;;;;20.91;44.13;101154.19;1655232;85;21126;-68
2021/05/22 07:20:58;;;;;;;6.62;1.60;;;;;;;20.87;43.95;101158.47;1646151;85;21367;-66
2021/05/22 07:23:25;;;;;;;2.80;1.20;;;;;;;20.80;44.32;101144.06;1655423;85;21082;-66
2021/05/22 07:25:52;;;;;;;7.22;1.52;;;;;;;20.77;44.44;101141.02;1647194;84;21126;-67
2021/05/22 07:28:19;;;;;;;4.55;1.77;;;;;;;20.82;44.38;101139.38;1654689;85;21092;-67
2021/05/22 07:30:46;;;;;;;1.60;1.35;;;;;;;20.93;44.05;101137.23;1654722;86;21139;-66
2021/05/22 07:33:13;;;;;;;5.05;1.50;;;;;;;21.00;43.65;101133.06;1654298;84;21169;-67
2021/05/22 07:35:41;;;;;;;2.62;1.42;;;;;;;21.08;43.86;101144.26;1655363;85;21109;-67
2021/05/22 07:38:08;;;;;;;3.67;1.70;;;;;;;21.15;44.17;101141.48;1656848;84;21537;-67
2021/05/22 07:40:34;;;;;;;2.83;1.70;;;;;;;21.22;44.49;101142.37;1656591;86;21164;-66
2021/05/22 07:43:03;;;;;;;4.87;1.57;;;;;;;21.32;43.43;101139.33;1659227;86;21161;-68
2021/05/22 07:45:31;;;;;;;4.47;1.70;;;;;;;21.42;43.05;101134.95;1654334;86;21134;-66
2021/05/22 07:47:58;;;;;;;3.22;1.40;;;;;;;21.50;42.38;101136.22;1656771;85;22289;-67
2021/05/22 07:50:25;;;;;;;2.40;1.30;;;;;;;21.60;40.82;101137.28;1655811;85;21614;-68
2021/05/22 07:52:52;;;;;;;4.92;1.67;;;;;;;21.68;41.47;101140.31;1655154;86;21190;-66
2021/05/22 07:55:18;;;;;;;3.17;1.55;;;;;;;21.73;41.67;101143.56;1655875;85;21118;-67
2021/05/22 07:57:46;;;;;;;4.62;1.70;;;;;;;21.74;42.47;101137.11;1649338;85;21137;-66
2021/05/22 08:00:15;;;;;;;2.15;1.42;;;;;;;21.80;41.70;101134.92;1626207;87;21134;-67
2021/05/22 08:02:43;;;;;;;3.65;1.50;;;;;;;21.84;41.31;101135.06;1659400;86;21121;-67
2021/05/22 08:05:13;;;;;;;2.65;1.42;;;;;;;21.90;41.52;101140.03;1690117;84;21088;-67
2021/05/22 08:07:41;;;;;;;4.35;1.70;;;;;;;21.91;40.99;101132.22;1690846;83;21089;-67
2021/05/22 08:10:09;;;;;;;2.20;1.27;;;;;;;21.95;41.11;101133.72;1681065;84;21563;-67
2021/05/22 08:12:36;;;;;;;1.45;1.20;;;;;;;22.07;41.08;101140.59;1675434;84;21122;-67
2021/05/22 08:15:06;;;;;;;2.33;0.98;;;;;;;22.12;39.78;101141.09;1655618;84;21974;-68
2021/05/22 08:17:35;;;;;;;1.57;0.90;;;;;;;22.17;39.06;101146.59;1661103;84;20959;-67
2021/05/22 08:20:04;;;;;;;1.12;0.90;;;;;;;22.16;39.27;101145.33;1649084;85;21156;-66
2021/05/22 08:22:30;;;;;;;1.12;1.02;;;;;;;22.13;38.00;101138.74;1652716;86;21170;-67
2021/05/22 08:24:58;;;;;;;1.77;1.20;;;;;;;22.08;39.08;101138.23;1685926;84;21160;-66
2021/05/22 08:27:24;;;;;;;2.52;1.00;;;;;;;22.03;39.75;101136.74;1660332;84;21304;-66
2021/05/22 08:29:52;;;;;;;2.00;1.00;;;;;;;22.03;39.72;101134.50;1680055;84;21574;-67
2021/05/22 08:32:18;;;;;;;4.30;1.30;;;;;;;22.01;39.60;101130.53;1658100;85;21112;-67
2021/05/22 08:34:45;;;;;;;1.62;1.30;;;;;;;21.99;40.45;101124.30;1628486;86;21127;-66
2021/05/22 08:37:13;;;;;;;1.20;1.10;;;;;;;22.04;40.50;101131.66;1692374;83;21653;-66
2021/05/22 08:39:44;;;;;;;2.67;1.55;;;;;;;22.06;40.22;101132.03;1679925;84;21497;-67
2021/05/22 08:42:08;;;;;;;1.95;1.20;;;;;;;22.06;40.68;101132.03;1657890;85;21595;-66
2021/05/22 08:44:38;;;;;;;1.30;1.20;;;;;;;22.07;40.22;101126.44;1688573;84;21105;-67
2021/05/22 08:47:03;;;;;;;3.22;1.10;;;;;;;22.11;40.40;101118.89;1708312;83;21200;-67
2021/05/22 08:49:40;;;;;;;2.47;1.15;;;;;;;22.14;40.23;101123.62;1686649;84;21086;-67
2021/05/22 08:51:58;;;;;;;2.27;1.12;;;;;;;22.14;40.11;101118.64;1642986;84;21993;-65
2021/05/22 08:54:25;;;;;;;1.40;0.90;;;;;;;22.16;40.34;101111.19;1667010;84;21096;-66
2021/05/22 08:56:52;;;;;;;2.05;1.00;;;;;;;22.15;39.42;101121.27;1687476;83;22272;-66
2021/05/22 08:59:18;;;;;;;1.47;0.93;;;;;;;22.10;39.06;101126.70;1687448;83;21090;-68
2021/05/22 09:01:48;;;;;;;1.15;1.00;;;;;;;22.03;39.23;101114.02;1687815;83;21124;-67
2021/05/22 09:04:14;;;;;;;1.07;0.78;;;;;;;21.98;39.56;101115.73;1687691;84;21627;-66
2021/05/22 09:07:02;;;;;;;2.42;0.98;;;;;;;21.97;40.00;101111.78;1687112;84;21717;-63
2021/05/22 09:09:43;;;;;;;1.25;0.88;;;;;;;21.99;39.94;101120.71;1694882;84;21093;-64
2021/05/22 09:12:10;;;;;;;0.93;0.93;;;;;;;21.94;39.57;101116.12;1687462;84;21120;-63
2021/05/22 09:14:51;;;;;;;2.90;1.00;;;;;;;21.84;39.35;101120.05;1678399;83;21082;-64
2021/05/22 09:17:17;;;;;;;3.12;1.02;;;;;;;21.73;39.47;101124.45;1699997;83;21545;-63
2021/05/22 09:19:45;;;;;;;1.35;1.05;;;;;;;21.65;39.60;101115.11;1687053;84;21106;-64
2021/05/22 09:22:25;;;;;;;1.15;1.02;;;;;;;21.63;39.13;101117.06;1682401;83;21081;-63
2021/05/22 09:25:02;;;;;;;2.47;0.95;;;;;;;21.62;39.85;101118.94;1687592;84;21117;-63
2021/05/22 09:27:35;;;;;;;4.22;1.00;;;;;;;21.63;40.18;101113.86;1650963;84;21991;-63
2021/05/22 09:30:10;;;;;;;4.87;1.00;;;;;;;21.67;40.19;101133.13;1658460;85;21525;-61
2021/05/22 09:32:37;;;;;;;;;;;;;;;21.65;39.47;101122.82;1656735;86;22202;-62
2021/05/22 09:35:05;;;;;;;1.98;0.93;;;;;;;21.54;39.30;101118.15;1623844;86;20727;-63
2021/05/22 09:37:52;;;;;;;1.72;1.30;;;;;;;21.50;40.68;101117.12;1680004;84;20955;-63
2021/05/22 09:40:26;;;;;;;2.85;1.17;;;;;;;21.56;40.95;101120.27;1650235;86;21043;-62
2021/05/22 09:42:53;;;;;;;3.58;1.65;;;;;;;21.64;40.69;101118.32;1683812;83;21681;-64
2021/05/22 09:45:43;;;;;;;7.03;1.47;;;;;;;21.67;40.47;101114.02;1686302;83;21181;-63
2021/05/22 09:48:20;;;;;;;4.87;1.40;;;;;;;21.71;40.59;101113.30;1656494;84;20958;-63
2021/05/22 09:50:50;;;;;;;3.30;1.35;;;;;;;21.66;40.47;101120.47;1639326;86;21615;-61
2021/05/22 09:53:29;;;;;;;1.72;1.17;;;;;;;21.61;40.37;101115.83;1658205;85;21469;-63
2021/05/22 09:56:26;;;;;;;3.72;1.32;;;;;;;21.58;40.50;101110.10;1661253;84;21091;-65
2021/05/22 09:58:57;;;;;;;2.52;1.47;;;;;;;21.54;40.66;101107.23;1600305;88;21125;-64
2021/05/22 10:01:31;;;;;;;2.40;1.52;;;;;;;21.51;41.18;101107.48;1624532;87;21133;-64
2021/05/22 10:04:20;;;;;;;6.33;1.62;;;;;;;21.52;41.00;101104.23;1640824;84;21613;-63
2021/05/22 10:06:47;;;;;;;4.42;2.08;;;;;;;21.53;41.45;101100.52;1679898;83;21097;-63
2021/05/22 10:09:16;;;;;;;3.65;1.50;;;;;;;21.50;42.50;101093.94;1677456;83;21661;-63
2021/05/22 10:12:08;;;;;;;3.10;1.50;;;;;;;21.47;42.38;101101.37;1696930;83;21061;-62
2021/05/22 10:14:40;;;;;;;1.80;1.25;;;;;;;21.42;42.39;101098.13;1690109;83;21520;-63
2021/05/22 10:17:10;;;;;;;4.10;1.35;;;;;;;21.39;41.75;101105.19;1701036;83;21133;-64
2021/05/22 10:19:37;;;;;;;3.50;1.20;;;;;;;21.33;41.74;101102.89;1702446;83;21046;-64
2021/05/22 10:22:07;;;;;;;2.77;1.65;;;;;;;21.28;41.39;101101.91;1685300;83;21113;-63
2021/05/22 10:24:34;;;;;;;1.85;1.32;;;;;;;21.21;41.50;101096.51;1655300;85;21596;-62
2021/05/22 10:27:02;;;;;;;1.80;1.02;;;;;;;21.15;41.50;101097.86;1661049;85;20982;-65
2021/05/22 10:29:29;;;;;;;1.80;1.40;;;;;;;21.12;41.55;101099.45;1629809;86;21370;-62
2021/05/22 10:31:56;;;;;;;1.60;1.17;;;;;;;21.10;41.10;101097.31;1684923;84;21690;-64
2021/05/22 10:34:26;;;;;;;2.75;1.30;;;;;;;21.08;41.69;101088.37;1693940;83;21157;-64
2021/05/22 10:36:58;;;;;;;1.62;1.20;;;;;;;21.07;42.42;101093.45;1703175;84;21129;-63
2021/05/22 10:39:43;;;;;;;1.47;1.17;;;;;;;21.03;42.48;101086.49;1697546;84;21006;-62
2021/05/22 10:42:20;;;;;;;1.37;1.20;;;;;;;21.01;42.27;101085.73;1695290;83;20951;-63
2021/05/22 10:44:49;;;;;;;9.90;1.30;;;;;;;21.00;42.67;101094.91;1682863;84;21362;-63
2021/05/22 10:47:18;;;;;;;4.72;1.42;;;;;;;20.96;43.48;101094.76;1644919;86;21049;-64
2021/05/22 10:50:07;;;;;;;2.05;1.52;;;;;;;20.89;43.03;101093.86;1659362;86;20954;-63
2021/05/22 10:52:35;;;;;;;2.58;1.87;;;;;;;20.84;42.53;101093.80;1674891;85;21133;-63
2021/05/22 10:55:12;;;;;;;4.10;1.30;;;;;;;20.76;42.67;101093.81;1658058;84;21149;-64
2021/05/22 10:57:59;;;;;;;3.87;1.70;;;;;;;20.70;42.84;101088.83;1661499;85;21651;-62
2021/05/22 11:00:27;;;;;;;3.85;1.50;;;;;;;20.67;45.48;101085.45;1655614;85;21128;-63
2021/05/22 11:02:57;;;;;;;3.17;1.67;;;;;;;20.65;46.77;101091.50;1669947;84;21000;-64
2021/05/22 11:05:37;;;;;;;5.83;1.90;;;;;;;20.63;46.28;101090.74;1680885;84;22071;-65
2021/05/22 11:08:12;;;;;;;4.37;2.20;;;;;;;20.66;44.99;101086.43;1643696;86;21580;-64
2021/05/22 11:10:51;;;;;;;5.00;2.33;;;;;;;20.65;44.40;101081.96;1673655;85;21677;-63
2021/05/22 11:13:26;;;;;;;3.70;1.70;;;;;;;20.62;44.01;101084.44;1668293;85;21111;-64
2021/05/22 11:15:55;;;;;;;3.77;1.95;;;;;;;20.62;46.88;101081.72;1714659;82;21065;-66
2021/05/22 11:18:29;;;;;;;5.30;1.60;;;;;;;20.60;47.75;101073.64;1719404;82;21077;-66
2021/05/22 11:21:18;;;;;;;2.98;1.85;;;;;;;20.59;47.80;101071.05;1683734;82;21149;-66
2021/05/22 11:24:03;;;;;;;3.17;1.70;;;;;;;20.61;44.40;101078.10;1708119;82;21060;-66
2021/05/22 11:26:56;;;;;;;6.22;2.22;;;;;;;20.59;43.74;101073.27;1698980;82;22017;-66
2021/05/22 11:29:49;;;;;;;4.08;2.10;;;;;;;20.57;43.31;101083.40;1712972;82;21053;-67
2021/05/22 11:32:53;;;;;;;5.28;2.50;;;;;;;20.54;42.10;101082.27;1685769;82;21152;-67
2021/05/22 11:35:31;;;;;;;2.70;1.80;;;;;;;20.49;42.53;101079.02;1712585;82;21016;-66